createdAt,value
2019-05-06T00:00:17.730Z,3.76
2019-05-06T00:01:17.711Z,3.76
2019-05-06T00:02:17.787Z,3.76
2019-05-06T00:03:17.729Z,3.80
2019-05-06T00:04:17.707Z,3.80
2019-05-06T00:05:17.764Z,3.74
2019-05-06T00:06:17.711Z,3.76
2019-05-06T00:07:17.715Z,3.79
2019-05-06T00:08:17.738Z,3.79
2019-05-06T00:09:17.765Z,3.79
2019-05-06T00:10:17.716Z,3.77
2019-05-06T00:11:17.777Z,3.80
2019-05-06T00:12:17.729Z,3.80
2019-05-06T00:13:17.713Z,3.77
2019-05-06T00:14:17.793Z,3.79
2019-05-06T00:15:17.735Z,3.81
2019-05-06T00:16:17.760Z,3.85
2019-05-06T00:17:17.776Z,3.80
2019-05-06T00:18:17.709Z,3.83
2019-05-06T00:19:17.737Z,3.79
2019-05-06T00:20:17.767Z,3.87
2019-05-06T00:21:17.751Z,3.82
2019-05-06T00:22:17.755Z,3.80
2019-05-06T00:23:17.726Z,3.75
2019-05-06T00:24:17.735Z,3.75
2019-05-06T00:25:17.776Z,3.77
2019-05-06T00:26:17.801Z,3.79
2019-05-06T00:27:17.750Z,3.71
2019-05-06T00:28:17.750Z,3.69
2019-05-06T00:29:17.736Z,3.72
2019-05-06T00:30:17.757Z,3.72
2019-05-06T00:31:17.754Z,3.73
2019-05-06T00:32:17.809Z,3.72
2019-05-06T00:33:17.770Z,3.65
2019-05-06T00:34:17.748Z,3.64
2019-05-06T00:35:17.779Z,3.63
2019-05-06T00:36:17.776Z,3.65
2019-05-06T00:37:17.770Z,3.63
2019-05-06T00:38:17.738Z,3.59
2019-05-06T00:39:17.757Z,3.58
2019-05-06T00:40:17.744Z,3.58
2019-05-06T00:41:17.783Z,3.55
2019-05-06T00:42:17.765Z,3.55
2019-05-06T00:43:17.753Z,3.56
2019-05-06T00:44:17.786Z,3.53
2019-05-06T00:45:17.749Z,3.53
2019-05-06T00:46:17.770Z,3.53
2019-05-06T00:47:17.792Z,3.51
2019-05-06T00:48:17.744Z,3.51
2019-05-06T00:49:17.779Z,3.50
2019-05-06T00:50:17.819Z,3.49
2019-05-06T00:51:17.760Z,3.46
2019-05-06T00:52:17.751Z,3.49
2019-05-06T00:53:17.796Z,3.46
2019-05-06T00:54:17.759Z,3.48
2019-05-06T00:55:17.749Z,3.43
2019-05-06T00:56:17.799Z,3.39
2019-05-06T00:57:17.794Z,3.38
2019-05-06T00:58:17.752Z,3.39
2019-05-06T00:59:17.824Z,3.35
2019-05-06T01:00:17.798Z,3.37
2019-05-06T01:01:26.910Z,3.37
2019-05-06T01:02:17.772Z,3.35
2019-05-06T01:03:17.780Z,3.29
2019-05-06T01:04:17.767Z,3.22
2019-05-06T01:05:17.833Z,3.20
2019-05-06T01:06:17.800Z,3.19
2019-05-06T01:07:17.772Z,3.19
2019-05-06T01:08:17.802Z,3.18
2019-05-06T01:09:17.766Z,3.12
2019-05-06T01:10:17.852Z,3.11
2019-05-06T01:11:17.818Z,3.07
2019-05-06T01:12:17.792Z,3.07
2019-05-06T01:13:17.763Z,3.08
2019-05-06T01:14:17.820Z,3.13
2019-05-06T01:15:17.783Z,3.10
2019-05-06T01:16:17.784Z,3.08
2019-05-06T01:17:17.791Z,3.04
2019-05-06T01:18:17.796Z,3.05
2019-05-06T01:19:17.765Z,3.05
2019-05-06T01:20:17.757Z,3.02
2019-05-06T01:21:17.766Z,3.01
2019-05-06T01:22:17.777Z,3.03
2019-05-06T01:23:17.815Z,2.99
2019-05-06T01:24:17.775Z,3.01
2019-05-06T01:25:17.782Z,2.96
2019-05-06T01:26:17.775Z,2.97
2019-05-06T01:27:17.786Z,2.93
2019-05-06T01:28:17.823Z,2.93
2019-05-06T01:29:17.810Z,2.95
2019-05-06T01:30:17.802Z,2.98
2019-05-06T01:31:17.792Z,2.96
2019-05-06T01:32:17.783Z,2.90
2019-05-06T01:33:17.798Z,2.91
2019-05-06T01:34:17.855Z,2.88
2019-05-06T01:35:17.824Z,2.87
2019-05-06T01:36:17.765Z,2.83
2019-05-06T01:37:17.787Z,2.84
2019-05-06T01:38:17.823Z,2.81
2019-05-06T01:39:17.814Z,2.82
2019-05-06T01:40:17.775Z,2.83
2019-05-06T01:41:17.789Z,2.82
2019-05-06T01:42:17.793Z,2.78
2019-05-06T01:43:17.850Z,2.78
2019-05-06T01:44:17.842Z,2.88
2019-05-06T01:45:17.811Z,2.87
2019-05-06T01:46:17.784Z,2.82
2019-05-06T01:47:17.823Z,2.78
2019-05-06T01:48:17.800Z,2.76
2019-05-06T01:49:17.809Z,2.79
2019-05-06T01:50:17.806Z,2.77
2019-05-06T01:51:17.809Z,2.71
2019-05-06T01:52:17.784Z,2.70
2019-05-06T01:53:17.824Z,2.65
2019-05-06T01:54:17.783Z,2.63
2019-05-06T01:55:17.777Z,2.60
2019-05-06T01:56:17.851Z,2.56
2019-05-06T01:57:17.805Z,2.55
2019-05-06T01:58:17.796Z,2.49
2019-05-06T01:59:17.810Z,2.43
2019-05-06T02:00:17.829Z,2.42
2019-05-06T02:01:17.802Z,2.44
2019-05-06T02:02:17.822Z,2.44
2019-05-06T02:03:17.816Z,2.39
2019-05-06T02:04:17.796Z,2.33
2019-05-06T02:05:17.812Z,2.30
2019-05-06T02:06:17.829Z,2.25
2019-05-06T02:07:17.804Z,2.32
2019-05-06T02:08:17.837Z,2.33
2019-05-06T02:09:17.826Z,2.33
2019-05-06T02:10:17.800Z,2.37
2019-05-06T02:11:17.823Z,2.34
2019-05-06T02:12:17.812Z,2.37
2019-05-06T02:13:17.837Z,2.39
2019-05-06T02:14:17.852Z,2.34
2019-05-06T02:15:17.820Z,2.34
2019-05-06T02:16:17.796Z,2.34
2019-05-06T02:17:17.841Z,2.36
2019-05-06T02:18:17.802Z,2.37
2019-05-06T02:19:17.791Z,2.36
2019-05-06T02:20:17.837Z,2.41
2019-05-06T02:21:17.813Z,2.41
2019-05-06T02:22:17.816Z,2.37
2019-05-06T02:23:17.803Z,2.38
2019-05-06T02:24:17.829Z,2.34
2019-05-06T02:25:17.805Z,2.39
2019-05-06T02:26:17.817Z,2.43
2019-05-06T02:27:17.817Z,2.43
2019-05-06T02:28:17.817Z,2.41
2019-05-06T02:29:17.828Z,2.42
2019-05-06T02:30:17.821Z,2.43
2019-05-06T02:31:17.834Z,2.44
2019-05-06T02:32:26.064Z,2.46
2019-05-06T02:33:17.880Z,2.44
2019-05-06T02:34:17.818Z,2.41
2019-05-06T02:35:17.877Z,2.43
2019-05-06T02:36:17.856Z,2.43
2019-05-06T02:37:17.840Z,2.44
2019-05-06T02:38:17.839Z,2.43
2019-05-06T02:39:17.818Z,2.42
2019-05-06T02:40:17.889Z,2.39
2019-05-06T02:41:17.837Z,2.44
2019-05-06T02:42:17.828Z,2.45
2019-05-06T02:43:17.866Z,2.46
2019-05-06T02:44:17.855Z,2.43
2019-05-06T02:45:17.821Z,2.43
2019-05-06T02:46:17.831Z,2.42
2019-05-06T02:47:17.828Z,2.46
2019-05-06T02:48:17.853Z,2.49
2019-05-06T02:49:17.852Z,2.49
2019-05-06T02:50:17.837Z,2.47
2019-05-06T02:51:17.836Z,2.43
2019-05-06T02:52:17.837Z,2.49
2019-05-06T02:53:17.861Z,2.46
2019-05-06T02:54:17.825Z,2.44
2019-05-06T02:55:17.902Z,2.49
2019-05-06T02:56:17.874Z,2.51
2019-05-06T02:57:17.836Z,2.47
2019-05-06T02:58:17.846Z,2.50
2019-05-06T02:59:17.874Z,2.48
2019-05-06T03:00:17.867Z,2.56
2019-05-06T03:01:17.835Z,2.55
2019-05-06T03:02:37.547Z,2.53
2019-05-06T03:03:17.828Z,2.55
2019-05-06T03:04:17.840Z,2.55
2019-05-06T03:05:17.866Z,2.57
2019-05-06T03:06:17.873Z,2.60
2019-05-06T03:07:17.843Z,2.59
2019-05-06T03:08:17.891Z,2.61
2019-05-06T03:09:17.837Z,2.57
2019-05-06T03:10:17.842Z,2.66
2019-05-06T03:11:17.851Z,2.68
2019-05-06T03:12:17.857Z,2.66
2019-05-06T03:13:17.843Z,2.65
2019-05-06T03:14:17.855Z,2.69
2019-05-06T03:15:17.864Z,2.67
2019-05-06T03:16:17.846Z,2.63
2019-05-06T03:17:17.911Z,2.70
2019-05-06T03:18:17.858Z,2.70
2019-05-06T03:19:17.863Z,2.81
2019-05-06T03:20:17.881Z,2.78
2019-05-06T03:21:17.869Z,2.81
2019-05-06T03:22:17.844Z,2.80
2019-05-06T03:23:17.872Z,2.79
2019-05-06T03:24:17.880Z,2.79
2019-05-06T03:25:17.868Z,2.79
2019-05-06T03:26:17.879Z,2.82
2019-05-06T03:27:17.866Z,2.90
2019-05-06T03:28:17.859Z,2.88
2019-05-06T03:29:17.909Z,2.84
2019-05-06T03:30:17.876Z,2.80
2019-05-06T03:31:17.870Z,2.85
2019-05-06T03:32:24.851Z,2.84
2019-05-06T03:33:40.055Z,2.83
2019-05-06T03:35:33.764Z,2.87
2019-05-06T03:36:25.675Z,2.86
2019-05-06T03:37:17.890Z,2.86
2019-05-06T03:38:17.877Z,2.85
2019-05-06T03:39:17.877Z,2.84
2019-05-06T03:40:17.867Z,2.81
2019-05-06T03:41:17.871Z,2.80
2019-05-06T03:42:17.863Z,2.80
2019-05-06T03:43:17.867Z,2.77
2019-05-06T03:44:17.864Z,2.98
2019-05-06T03:45:17.880Z,2.93
2019-05-06T03:46:17.869Z,2.89
2019-05-06T03:47:17.867Z,3.02
2019-05-06T03:48:17.885Z,2.96
2019-05-06T03:49:17.860Z,2.92
2019-05-06T03:50:17.859Z,2.94
2019-05-06T03:51:17.897Z,2.98
2019-05-06T03:52:17.911Z,2.98
2019-05-06T03:53:17.869Z,3.01
2019-05-06T03:54:17.890Z,2.98
2019-05-06T03:55:17.893Z,3.03
2019-05-06T03:56:19.867Z,3.04
2019-05-06T03:57:17.886Z,2.98
2019-05-06T03:58:17.871Z,3.00
2019-05-06T03:59:17.908Z,2.98
2019-05-06T04:00:17.886Z,2.96
2019-05-06T04:01:17.890Z,3.03
2019-05-06T04:02:17.878Z,3.06
2019-05-06T04:03:17.877Z,3.06
2019-05-06T04:04:17.932Z,3.07
2019-05-06T04:05:17.905Z,3.11
2019-05-06T04:06:17.875Z,3.08
2019-05-06T04:07:17.907Z,3.10
2019-05-06T04:08:20.224Z,3.09
2019-05-06T04:09:17.908Z,3.10
2019-05-06T04:10:17.881Z,3.08
2019-05-06T04:11:17.903Z,3.08
2019-05-06T04:12:17.908Z,3.04
2019-05-06T04:13:17.933Z,3.03
2019-05-06T04:14:17.903Z,3.07
2019-05-06T04:15:17.885Z,3.06
2019-05-06T04:16:17.879Z,3.08
2019-05-06T04:17:17.895Z,3.09
2019-05-06T04:18:17.934Z,3.09
2019-05-06T04:19:17.899Z,3.11
2019-05-06T04:20:17.920Z,3.12
2019-05-06T04:21:17.888Z,3.14
2019-05-06T04:22:17.912Z,3.15
2019-05-06T04:23:17.945Z,3.14
2019-05-06T04:24:17.897Z,3.17
2019-05-06T04:25:17.911Z,3.18
2019-05-06T04:26:17.887Z,3.20
2019-05-06T04:27:17.906Z,3.21
2019-05-06T04:28:17.901Z,3.22
2019-05-06T04:29:17.941Z,3.20
2019-05-06T04:30:17.911Z,3.21
2019-05-06T04:31:17.882Z,3.20
2019-05-06T04:32:17.933Z,3.18
2019-05-06T04:33:17.951Z,3.19
2019-05-06T04:34:19.660Z,3.17
2019-05-06T04:35:17.935Z,3.21
2019-05-06T04:36:17.898Z,3.21
2019-05-06T04:37:17.893Z,3.20
2019-05-06T04:38:17.914Z,3.26
2019-05-06T04:39:17.919Z,3.21
2019-05-06T04:40:17.896Z,3.33
2019-05-06T04:41:17.935Z,3.30
2019-05-06T04:42:17.899Z,3.30
2019-05-06T04:43:17.890Z,3.28
2019-05-06T04:44:17.900Z,3.30
2019-05-06T04:45:17.921Z,3.33
2019-05-06T04:46:17.935Z,3.34
2019-05-06T04:47:17.938Z,3.38
2019-05-06T04:48:17.933Z,3.42
2019-05-06T04:49:17.899Z,3.41
2019-05-06T04:50:17.945Z,3.44
2019-05-06T04:51:17.917Z,3.46
2019-05-06T04:52:17.939Z,3.45
2019-05-06T04:53:17.912Z,3.49
2019-05-06T04:54:17.930Z,3.52
2019-05-06T04:55:17.922Z,3.54
2019-05-06T04:56:17.943Z,3.55
2019-05-06T04:57:17.936Z,3.53
2019-05-06T04:58:17.987Z,3.56
2019-05-06T04:59:17.957Z,3.54
2019-05-06T05:00:17.908Z,3.57
2019-05-06T05:01:17.919Z,3.59
2019-05-06T05:02:17.927Z,3.58
2019-05-06T05:03:17.900Z,3.59
2019-05-06T05:04:28.188Z,3.58
2019-05-06T05:05:17.885Z,3.60
2019-05-06T05:06:17.920Z,3.60
2019-05-06T05:07:17.950Z,3.62
2019-05-06T05:08:17.903Z,3.65
2019-05-06T05:09:17.947Z,3.65
2019-05-06T05:10:17.934Z,3.68
2019-05-06T05:11:17.953Z,3.68
2019-05-06T05:12:17.915Z,3.70
2019-05-06T05:13:17.913Z,3.72
2019-05-06T05:14:21.666Z,3.73
2019-05-06T05:15:17.930Z,3.73
2019-05-06T05:16:17.929Z,3.73
2019-05-06T05:17:17.972Z,3.74
2019-05-06T05:18:17.913Z,3.77
2019-05-06T05:19:17.924Z,3.79
2019-05-06T05:20:17.941Z,3.78
2019-05-06T05:21:17.932Z,3.76
2019-05-06T05:22:17.951Z,3.75
2019-05-06T05:23:17.973Z,3.75
2019-05-06T05:24:17.932Z,3.78
2019-05-06T05:25:17.935Z,3.77
2019-05-06T05:26:17.948Z,3.77
2019-05-06T05:27:17.945Z,3.79
2019-05-06T05:28:17.938Z,3.78
2019-05-06T05:29:17.908Z,3.80
2019-05-06T05:30:17.941Z,3.79
2019-05-06T05:31:17.947Z,3.78
2019-05-06T05:32:17.898Z,3.81
2019-05-06T05:33:17.931Z,3.78
2019-05-06T05:34:17.972Z,3.83
2019-05-06T05:35:17.976Z,3.81
2019-05-06T05:36:17.946Z,3.80
2019-05-06T05:37:17.917Z,3.83
2019-05-06T05:38:17.964Z,3.83
2019-05-06T05:39:17.948Z,3.82
2019-05-06T05:40:17.954Z,3.82
2019-05-06T05:41:17.986Z,3.85
2019-05-06T05:42:17.952Z,3.85
2019-05-06T05:43:17.983Z,3.84
2019-05-06T05:44:17.933Z,3.89
2019-05-06T05:45:18.000Z,3.94
2019-05-06T05:46:17.983Z,3.93
2019-05-06T05:47:17.965Z,3.95
2019-05-06T05:48:17.949Z,3.98
2019-05-06T05:49:20.140Z,3.93
2019-05-06T05:50:17.999Z,3.95
2019-05-06T05:51:17.942Z,3.97
2019-05-06T05:52:17.981Z,3.99
2019-05-06T05:53:17.956Z,3.99
2019-05-06T05:54:17.950Z,3.98
2019-05-06T05:55:17.980Z,3.95
2019-05-06T05:56:17.937Z,4.04
2019-05-06T05:57:17.939Z,4.10
2019-05-06T05:58:17.947Z,4.09
2019-05-06T05:59:17.950Z,4.08
2019-05-06T06:00:17.938Z,4.07
2019-05-06T06:01:17.943Z,4.08
2019-05-06T06:02:17.922Z,4.05
2019-05-06T06:03:17.962Z,4.09
2019-05-06T06:04:17.957Z,4.09
2019-05-06T06:05:17.955Z,4.11
2019-05-06T06:06:18.002Z,4.12
2019-05-06T06:07:17.953Z,4.08
2019-05-06T06:08:17.987Z,4.13
2019-05-06T06:09:17.967Z,4.12
2019-05-06T06:10:18.041Z,4.17
2019-05-06T06:11:18.015Z,4.15
2019-05-06T06:12:17.971Z,4.15
2019-05-06T06:13:17.951Z,4.17
2019-05-06T06:14:17.984Z,4.20
2019-05-06T06:15:17.955Z,4.21
2019-05-06T06:16:17.981Z,4.21
2019-05-06T06:17:17.994Z,4.20
2019-05-06T06:18:17.975Z,4.24
2019-05-06T06:19:17.970Z,4.24
2019-05-06T06:20:17.967Z,4.23
2019-05-06T06:21:23.125Z,4.18
2019-05-06T06:22:17.988Z,4.23
2019-05-06T06:23:18.011Z,4.20
2019-05-06T06:24:17.956Z,4.23
2019-05-06T06:25:18.023Z,4.22
2019-05-06T06:26:17.994Z,4.23
2019-05-06T06:27:17.991Z,4.22
2019-05-06T06:28:17.964Z,4.21
2019-05-06T06:29:17.960Z,4.23
2019-05-06T06:30:17.981Z,4.21
2019-05-06T06:31:18.042Z,4.23
2019-05-06T06:32:18.025Z,4.21
2019-05-06T06:33:17.990Z,4.26
2019-05-06T06:34:18.025Z,4.27
2019-05-06T06:35:19.202Z,4.24
2019-05-06T06:36:17.990Z,4.25
2019-05-06T06:37:18.065Z,4.25
2019-05-06T06:38:17.984Z,4.21
2019-05-06T06:39:17.979Z,4.28
2019-05-06T06:40:18.042Z,4.31
2019-05-06T06:41:18.041Z,4.33
2019-05-06T06:42:18.014Z,4.34
2019-05-06T06:43:18.051Z,4.34
2019-05-06T06:44:18.023Z,4.35
2019-05-06T06:45:17.991Z,4.38
2019-05-06T06:46:18.012Z,4.40
2019-05-06T06:47:18.011Z,4.40
2019-05-06T06:48:18.004Z,4.40
2019-05-06T06:49:18.050Z,4.41
2019-05-06T06:50:17.989Z,4.41
2019-05-06T06:51:17.991Z,4.38
2019-05-06T06:52:18.052Z,4.41
2019-05-06T06:53:18.021Z,4.44
2019-05-06T06:54:18.011Z,4.42
2019-05-06T06:55:18.602Z,4.39
2019-05-06T06:56:17.994Z,4.42
2019-05-06T06:57:18.002Z,4.42
2019-05-06T06:58:18.077Z,4.43
2019-05-06T06:59:18.053Z,4.39
2019-05-06T07:00:18.043Z,4.41
2019-05-06T07:01:18.064Z,4.44
2019-05-06T07:02:18.007Z,4.38
2019-05-06T07:03:17.987Z,4.42
2019-05-06T07:04:18.045Z,4.36
2019-05-06T07:05:27.678Z,4.44
2019-05-06T07:06:18.008Z,4.45
2019-05-06T07:07:18.017Z,4.43
2019-05-06T07:08:31.368Z,4.45
2019-05-06T07:09:18.010Z,4.45
2019-05-06T07:10:18.060Z,4.47
2019-05-06T07:11:18.015Z,4.42
2019-05-06T07:12:18.049Z,4.49
2019-05-06T07:13:18.019Z,4.42
2019-05-06T07:14:18.038Z,4.45
2019-05-06T07:15:18.009Z,4.46
2019-05-06T07:16:20.482Z,4.47
2019-05-06T07:17:18.070Z,4.52
2019-05-06T07:18:18.024Z,4.50
2019-05-06T07:19:18.066Z,4.55
2019-05-06T07:20:18.008Z,4.52
2019-05-06T07:21:18.045Z,4.52
2019-05-06T07:22:18.078Z,4.53
2019-05-06T07:23:18.015Z,4.57
2019-05-06T07:24:18.000Z,4.56
2019-05-06T07:25:18.068Z,4.57
2019-05-06T07:26:18.027Z,4.61
2019-05-06T07:27:18.011Z,4.62
2019-05-06T07:28:18.015Z,4.60
2019-05-06T07:29:23.607Z,4.59
2019-05-06T07:30:18.035Z,4.60
2019-05-06T07:31:22.206Z,4.65
2019-05-06T07:32:18.072Z,4.65
2019-05-06T07:33:18.022Z,4.67
2019-05-06T07:34:18.082Z,4.71
2019-05-06T07:35:18.016Z,4.72
2019-05-06T07:36:20.116Z,4.75
2019-05-06T07:37:18.078Z,4.77
2019-05-06T07:38:18.057Z,4.78
2019-05-06T07:39:18.090Z,4.79
2019-05-06T07:40:18.093Z,4.83
2019-05-06T07:41:18.055Z,4.84
2019-05-06T07:42:18.036Z,4.92
2019-05-06T07:43:18.057Z,4.90
2019-05-06T07:44:18.056Z,4.92
2019-05-06T07:45:18.025Z,4.98
2019-05-06T07:46:18.088Z,4.95
2019-05-06T07:47:18.052Z,4.98
2019-05-06T07:48:18.048Z,4.98
2019-05-06T07:49:18.091Z,4.98
2019-05-06T07:50:18.077Z,5.04
2019-05-06T07:51:18.021Z,5.05
2019-05-06T07:52:18.093Z,5.03
2019-05-06T07:53:18.072Z,5.02
2019-05-06T07:54:18.039Z,5.07
2019-05-06T07:55:18.045Z,5.03
2019-05-06T07:56:18.043Z,5.07
2019-05-06T07:57:18.028Z,5.07
2019-05-06T07:58:18.031Z,5.07
2019-05-06T07:59:18.064Z,5.11
2019-05-06T08:00:18.066Z,5.08
2019-05-06T08:01:18.042Z,5.11
2019-05-06T08:02:18.024Z,5.11
2019-05-06T08:03:18.035Z,5.09
2019-05-06T08:04:18.037Z,5.09
2019-05-06T08:05:18.059Z,5.08
2019-05-06T08:06:18.072Z,5.09
2019-05-06T08:07:18.095Z,5.09
2019-05-06T08:08:18.081Z,5.11
2019-05-06T08:09:18.049Z,5.15
2019-05-06T08:10:18.072Z,5.13
2019-05-06T08:11:18.081Z,5.14
2019-05-06T08:12:18.102Z,5.13
2019-05-06T08:13:18.065Z,5.15
2019-05-06T08:14:18.078Z,5.16
2019-05-06T08:15:18.065Z,5.13
2019-05-06T08:16:18.071Z,5.16
2019-05-06T08:17:18.107Z,5.18
2019-05-06T08:18:18.051Z,5.18
2019-05-06T08:19:18.070Z,5.18
2019-05-06T08:20:18.106Z,5.22
2019-05-06T08:21:18.045Z,5.17
2019-05-06T08:22:18.087Z,5.18
2019-05-06T08:23:18.096Z,5.24
2019-05-06T08:24:18.092Z,5.24
2019-05-06T08:25:18.059Z,5.31
2019-05-06T08:26:18.280Z,5.26
2019-05-06T08:27:18.052Z,5.31
2019-05-06T08:28:18.083Z,5.28
2019-05-06T08:29:18.085Z,5.32
2019-05-06T08:30:18.102Z,5.28
2019-05-06T08:31:18.074Z,5.33
2019-05-06T08:32:18.047Z,5.33
2019-05-06T08:33:18.053Z,5.32
2019-05-06T08:34:18.093Z,5.35
2019-05-06T08:35:18.117Z,5.37
2019-05-06T08:36:18.087Z,5.40
2019-05-06T08:37:18.082Z,5.39
2019-05-06T08:38:18.050Z,5.44
2019-05-06T08:39:18.050Z,5.43
2019-05-06T08:40:18.088Z,5.47
2019-05-06T08:41:18.073Z,5.49
2019-05-06T08:42:18.084Z,5.46
2019-05-06T08:43:18.091Z,5.47
2019-05-06T08:44:18.082Z,5.53
2019-05-06T08:45:18.065Z,5.45
2019-05-06T08:46:18.103Z,5.50
2019-05-06T08:47:18.131Z,5.51
2019-05-06T08:48:18.086Z,5.53
2019-05-06T08:49:18.085Z,5.51
2019-05-06T08:50:18.052Z,5.54
2019-05-06T08:51:18.089Z,5.55
2019-05-06T08:52:18.137Z,5.55
2019-05-06T08:53:18.060Z,5.57
2019-05-06T08:54:18.081Z,5.57
2019-05-06T08:55:18.091Z,5.58
2019-05-06T08:56:18.061Z,5.57
2019-05-06T08:57:18.073Z,5.58
2019-05-06T08:58:18.139Z,5.57
2019-05-06T08:59:18.084Z,5.56
2019-05-06T09:00:18.095Z,5.59
2019-05-06T09:01:18.090Z,5.58
2019-05-06T09:02:18.073Z,5.58
2019-05-06T09:03:18.076Z,5.60
2019-05-06T09:04:18.110Z,5.57
2019-05-06T09:05:18.144Z,5.57
2019-05-06T09:06:29.249Z,5.53
2019-05-06T09:07:18.111Z,5.55
2019-05-06T09:08:18.127Z,5.53
2019-05-06T09:09:18.081Z,5.50
2019-05-06T09:10:18.112Z,5.49
2019-05-06T09:11:18.093Z,5.46
2019-05-06T09:12:18.066Z,5.48
2019-05-06T09:13:18.107Z,5.48
2019-05-06T09:14:18.118Z,5.46
2019-05-06T09:15:18.061Z,5.46
2019-05-06T09:16:18.125Z,5.47
2019-05-06T09:17:18.109Z,5.49
2019-05-06T09:18:18.098Z,5.50
2019-05-06T09:19:18.111Z,5.55
2019-05-06T09:20:18.085Z,5.57
2019-05-06T09:21:18.109Z,5.55
2019-05-06T09:22:18.145Z,5.53
2019-05-06T09:23:18.101Z,5.54
2019-05-06T09:24:18.097Z,5.56
2019-05-06T09:25:18.114Z,5.62
2019-05-06T09:26:18.092Z,5.60
2019-05-06T09:27:18.118Z,5.60
2019-05-06T09:28:18.132Z,5.69
2019-05-06T09:29:18.128Z,5.71
2019-05-06T09:30:18.106Z,5.73
2019-05-06T09:31:18.170Z,5.79
2019-05-06T09:32:18.110Z,5.82
2019-05-06T09:33:18.122Z,5.86
2019-05-06T09:34:18.117Z,5.78
2019-05-06T09:35:18.106Z,5.82
2019-05-06T09:36:18.108Z,5.81
2019-05-06T09:37:18.126Z,5.90
2019-05-06T09:38:18.134Z,5.91
2019-05-06T09:39:18.104Z,5.85
2019-05-06T09:40:18.099Z,5.86
2019-05-06T09:41:18.139Z,5.97
2019-05-06T09:42:18.140Z,6.00
2019-05-06T09:43:18.125Z,6.04
2019-05-06T09:44:18.108Z,6.06
2019-05-06T09:45:18.105Z,6.11
2019-05-06T09:46:18.106Z,6.09
2019-05-06T09:47:18.167Z,6.13
2019-05-06T09:48:18.170Z,6.20
2019-05-06T09:49:18.109Z,6.26
2019-05-06T09:50:18.102Z,6.29
2019-05-06T09:51:18.109Z,6.28
2019-05-06T09:52:18.135Z,6.35
2019-05-06T09:53:18.179Z,6.38
2019-05-06T09:54:18.130Z,6.39
2019-05-06T09:55:18.133Z,6.37
2019-05-06T09:56:18.081Z,6.51
2019-05-06T09:57:18.162Z,6.54
2019-05-06T09:58:18.160Z,6.54
2019-05-06T09:59:18.171Z,6.56
2019-05-06T10:00:18.146Z,6.55
2019-05-06T10:01:18.177Z,6.61
2019-05-06T10:02:18.101Z,6.63
2019-05-06T10:03:18.126Z,6.61
2019-05-06T10:04:18.123Z,6.65
2019-05-06T10:05:18.187Z,6.70
2019-05-06T10:06:18.153Z,6.75
2019-05-06T10:07:18.183Z,6.77
2019-05-06T10:08:18.109Z,6.88
2019-05-06T10:09:18.125Z,6.98
2019-05-06T10:10:18.118Z,6.85
2019-05-06T10:11:18.184Z,6.92
2019-05-06T10:12:18.140Z,6.93
2019-05-06T10:13:18.141Z,6.98
2019-05-06T10:14:18.173Z,6.98
2019-05-06T10:15:18.132Z,7.04
2019-05-06T10:16:18.135Z,7.06
2019-05-06T10:17:18.163Z,7.01
2019-05-06T10:18:18.210Z,7.07
2019-05-06T10:19:18.147Z,7.03
2019-05-06T10:20:18.134Z,7.03
2019-05-06T10:21:18.185Z,7.03
2019-05-06T10:22:18.193Z,7.03
2019-05-06T10:23:18.198Z,7.08
2019-05-06T10:24:18.145Z,7.06
2019-05-06T10:25:18.132Z,7.07
2019-05-06T10:26:18.150Z,7.10
2019-05-06T10:27:18.126Z,7.14
2019-05-06T10:28:18.146Z,7.22
2019-05-06T10:29:18.169Z,7.23
2019-05-06T10:30:18.145Z,7.27
2019-05-06T10:31:18.180Z,7.26
2019-05-06T10:32:18.160Z,7.20
2019-05-06T10:33:18.140Z,7.19
2019-05-06T10:34:18.150Z,7.26
2019-05-06T10:35:18.160Z,7.30
2019-05-06T10:36:18.176Z,7.31
2019-05-06T10:37:19.230Z,7.34
2019-05-06T10:38:18.165Z,7.27
2019-05-06T10:39:18.136Z,7.28
2019-05-06T10:40:18.163Z,7.28
2019-05-06T10:41:18.187Z,7.28
2019-05-06T10:42:18.165Z,7.23
2019-05-06T10:43:18.160Z,7.21
2019-05-06T10:44:18.176Z,7.27
2019-05-06T10:45:18.150Z,7.29
2019-05-06T10:46:18.163Z,7.34
2019-05-06T10:47:18.193Z,7.32
2019-05-06T10:48:18.173Z,7.33
2019-05-06T10:49:18.157Z,7.31
2019-05-06T10:50:18.144Z,7.31
2019-05-06T10:51:18.189Z,7.22
2019-05-06T10:52:18.159Z,7.18
2019-05-06T10:53:18.196Z,7.07
2019-05-06T10:54:18.166Z,7.05
2019-05-06T10:55:18.166Z,7.04
2019-05-06T10:56:18.210Z,7.07
2019-05-06T10:57:18.155Z,7.08
2019-05-06T10:58:18.181Z,7.07
2019-05-06T10:59:18.185Z,7.14
2019-05-06T11:00:18.174Z,7.12
2019-05-06T11:01:18.175Z,7.14
2019-05-06T11:02:18.166Z,7.16
2019-05-06T11:03:18.168Z,7.11
2019-05-06T11:04:18.181Z,7.05
2019-05-06T11:05:18.189Z,7.07
2019-05-06T11:06:18.191Z,7.13
2019-05-06T11:07:31.105Z,7.12
2019-05-06T11:08:18.213Z,7.09
2019-05-06T11:09:18.165Z,7.16
2019-05-06T11:10:26.995Z,7.13
2019-05-06T11:11:31.633Z,7.17
2019-05-06T11:12:18.187Z,7.20
2019-05-06T11:13:18.168Z,7.17
2019-05-06T11:14:18.165Z,7.21
2019-05-06T11:15:18.200Z,7.25
2019-05-06T11:16:18.206Z,7.27
2019-05-06T11:17:18.201Z,7.28
2019-05-06T11:18:18.237Z,7.28
2019-05-06T11:19:18.172Z,7.31
2019-05-06T11:20:18.183Z,7.30
2019-05-06T11:21:18.159Z,7.33
2019-05-06T11:22:21.438Z,7.36
2019-05-06T11:23:18.229Z,7.37
2019-05-06T11:24:18.175Z,7.40
2019-05-06T11:25:18.175Z,7.40
2019-05-06T11:26:18.184Z,7.38
2019-05-06T11:27:28.960Z,7.38
2019-05-06T11:28:18.225Z,7.38
2019-05-06T11:29:18.235Z,7.37
2019-05-06T11:30:18.174Z,7.41
2019-05-06T11:31:18.214Z,7.45
2019-05-06T11:32:21.040Z,7.51
2019-05-06T11:33:18.175Z,7.42
2019-05-06T11:34:18.229Z,7.47
2019-05-06T11:35:18.227Z,7.46
2019-05-06T11:36:18.207Z,7.47
2019-05-06T11:37:18.193Z,7.47
2019-05-06T11:38:18.193Z,7.41
2019-05-06T11:39:18.149Z,7.42
2019-05-06T11:40:18.233Z,7.45
2019-05-06T11:41:18.238Z,7.48
2019-05-06T11:42:25.217Z,7.46
2019-05-06T11:43:18.196Z,7.49
2019-05-06T11:44:18.260Z,7.49
2019-05-06T11:45:18.183Z,7.53
2019-05-06T11:46:18.213Z,7.54
2019-05-06T11:47:18.190Z,7.58
2019-05-06T11:48:18.174Z,7.63
2019-05-06T11:49:18.220Z,7.70
2019-05-06T11:50:18.181Z,7.59
2019-05-06T11:51:18.262Z,7.65
2019-05-06T11:52:18.193Z,7.69
2019-05-06T11:53:18.229Z,7.68
2019-05-06T11:54:20.776Z,7.68
2019-05-06T11:55:28.911Z,7.72
2019-05-06T11:56:18.198Z,7.74
2019-05-06T11:57:18.205Z,7.82
2019-05-06T11:58:18.247Z,7.87
2019-05-06T11:59:18.194Z,7.82
2019-05-06T12:00:18.212Z,7.80
2019-05-06T12:01:18.263Z,7.73
2019-05-06T12:02:18.184Z,7.73
2019-05-06T12:03:18.191Z,7.68
2019-05-06T12:04:18.212Z,7.64
2019-05-06T12:05:18.242Z,7.66
2019-05-06T12:06:18.216Z,7.70
2019-05-06T12:07:18.231Z,7.70
2019-05-06T12:08:18.253Z,7.72
2019-05-06T12:09:18.233Z,7.71
2019-05-06T12:10:18.227Z,7.65
2019-05-06T12:11:18.253Z,7.70
2019-05-06T12:12:18.220Z,7.71
2019-05-06T12:13:18.216Z,7.74
2019-05-06T12:14:18.231Z,7.71
2019-05-06T12:15:18.197Z,7.75
2019-05-06T12:16:18.251Z,7.80
2019-05-06T12:17:18.246Z,7.92
2019-05-06T12:18:18.233Z,7.90
2019-05-06T12:19:18.216Z,7.94
2019-05-06T12:20:18.278Z,7.88
2019-05-06T12:21:19.260Z,7.88
2019-05-06T12:22:18.225Z,7.90
2019-05-06T12:23:18.286Z,7.83
2019-05-06T12:24:18.233Z,7.91
2019-05-06T12:25:18.222Z,7.91
2019-05-06T12:26:18.260Z,7.95
2019-05-06T12:27:18.226Z,7.98
2019-05-06T12:28:18.220Z,7.89
2019-05-06T12:29:18.285Z,7.94
2019-05-06T12:30:18.280Z,7.91
2019-05-06T12:31:18.231Z,7.83
2019-05-06T12:32:18.221Z,7.89
2019-05-06T12:33:18.251Z,7.95
2019-05-06T12:34:18.261Z,7.95
2019-05-06T12:35:18.199Z,8.03
2019-05-06T12:36:18.331Z,8.05
2019-05-06T12:37:18.243Z,8.03
2019-05-06T12:38:30.106Z,8.11
2019-05-06T12:39:19.805Z,8.14
2019-05-06T12:40:18.239Z,8.11
2019-05-06T12:41:18.248Z,8.04
2019-05-06T12:42:18.248Z,8.08
2019-05-06T12:43:18.246Z,8.13
2019-05-06T12:44:18.273Z,8.11
2019-05-06T12:45:18.248Z,8.10
2019-05-06T12:46:18.240Z,8.15
2019-05-06T12:47:18.290Z,8.11
2019-05-06T12:48:18.241Z,8.10
2019-05-06T12:49:18.260Z,7.93
2019-05-06T12:50:18.218Z,8.02
2019-05-06T12:51:18.238Z,8.01
2019-05-06T12:52:18.294Z,7.99
2019-05-06T12:53:18.272Z,8.02
2019-05-06T12:54:18.271Z,8.02
2019-05-06T12:55:21.698Z,8.11
2019-05-06T12:56:18.224Z,8.10
2019-05-06T12:57:18.241Z,8.13
2019-05-06T12:58:21.053Z,8.03
2019-05-06T12:59:18.322Z,8.03
2019-05-06T13:00:18.256Z,7.97
2019-05-06T13:01:18.254Z,7.98
2019-05-06T13:02:18.228Z,7.93
2019-05-06T13:03:18.266Z,7.94
2019-05-06T13:04:18.265Z,7.97
2019-05-06T13:05:18.245Z,7.96
2019-05-06T13:06:18.845Z,8.02
2019-05-06T13:07:18.256Z,8.06
2019-05-06T13:08:20.572Z,8.02
2019-05-06T13:09:18.290Z,7.98
2019-05-06T13:10:18.275Z,7.95
2019-05-06T13:11:18.312Z,7.97
2019-05-06T13:12:18.279Z,8.00
2019-05-06T13:13:18.276Z,7.89
2019-05-06T13:14:18.273Z,7.94
2019-05-06T13:15:18.292Z,7.91
2019-05-06T13:16:18.351Z,7.88
2019-05-06T13:17:18.360Z,7.93
2019-05-06T13:18:18.343Z,7.99
2019-05-06T13:19:18.379Z,8.04